Sti Hammersmith — V7DP3 — position and weather

sailwx.info

Track history (hours):
 
Tides and Currents Weather Stations Pressure Air Temp Water Temp Dewpoint Dewpoint Depression Visibility Wind Speed Wind Dir Waves Ship Positions

Sti Hammersmith

Last reported at 2018-May-22 14:50 UTC. Time now 2018-May-22 19:10 UTC.
Position N 60°02' E 029°24'.

Length 184 m; draft 6.9 m.

Type: Tanker. MMSI: 538005410.

Date/timePositionNaut miles runAvg speedWind from/ knotsBaromVisibWave heightAir tempDewpointWater temp
2018-May-22 14:50N 60°02' E 029°24'6 7.8
2018-May-22 14:04N 60°02' E 029°12'112.6
2018-May-22 14:00N 60°02' E 029°11'713.4
2018-May-22 13:30N 60°02' E 028°58'713.6
2018-May-22 13:01N 60°02' E 028°44'713.7
2018-May-22 12:30N 60°03' E 028°30'713.6
2018-May-22 12:00N 60°06' E 028°18'713.9
2018-May-22 11:30N 60°08' E 028°05'713.8
2018-May-22 11:00N 60°10' E 027°52'612.6
2018-May-22 10:30N 60°09' E 027°40'714.0
2018-May-22 10:00N 60°05' E 027°28'713.9
2018-May-22 09:30N 60°02' E 027°16'714.0
2018-May-22 09:00N 59°58' E 027°04'713.6
2018-May-22 08:30N 59°59' E 026°50'713.4
2018-May-22 08:00N 59°59' E 026°37'713.9
2018-May-22 07:31N 59°57' E 026°24'2013.8
2018-May-22 06:05N 59°52' E 025°46'113.8
2018-May-22 06:01N 59°52' E 025°44'713.6
2018-May-22 05:30N 59°50' E 025°31'713.4
2018-May-22 05:01N 59°49' E 025°18'713.6
2018-May-22 04:30N 59°48' E 025°04'713.8
2018-May-22 04:00N 59°46' E 024°51'714.0
2018-May-22 03:30N 59°45' E 024°37'713.8
2018-May-22 03:00N 59°43' E 024°24'713.5
2018-May-22 02:30N 59°41' E 024°11'713.6
2018-May-22 02:00N 59°39' E 023°59'713.7
2018-May-22 01:30N 59°36' E 023°46'714.2
2018-May-22 01:00N 59°34' E 023°33'714.1
2018-May-22 00:30N 59°32' E 023°20'914.0
2018-May-21 23:54N 59°29' E 023°04'514.1
2018-May-21 23:30N 59°27' E 022°53'714.0
2018-May-21 23:01N 59°25' E 022°40'813.9
2018-May-21 22:25N 59°21' E 022°26'614.0
2018-May-21 21:59N 59°17' E 022°17'913.9
2018-May-21 21:21N 59°12' E 022°03'513.8
2018-May-21 20:58N 59°09' E 021°55'713.7
2018-May-21 20:28N 59°05' E 021°44'23213.6
2018-May-21 03:19N 56°09' E 017°00'414.0
2018-May-21 03:01N 56°06' E 016°54'713.9
2018-May-21 02:30N 56°02' E 016°44'713.9
2018-May-21 02:00N 55°59' E 016°33'713.8
2018-May-21 01:30N 55°55' E 016°23'713.7
2018-May-21 01:00N 55°52' E 016°12'713.7
2018-May-21 00:30N 55°48' E 016°02'714.0
2018-May-21 00:00N 55°44' E 015°51'713.9
2018-May-20 23:30N 55°41' E 015°41'714.1
2018-May-20 23:01N 55°37' E 015°30'714.2
2018-May-20 22:30N 55°34' E 015°18'714.0
2018-May-20 22:00N 55°31' E 015°07'713.9
2018-May-20 21:30N 55°29' E 014°56'713.8
2018-May-20 21:01N 55°26' E 014°45'713.5
2018-May-20 20:30N 55°21' E 014°36'713.7
2018-May-20 20:01N 55°16' E 014°28'713.6
2018-May-20 19:30N 55°11' E 014°20'712.8
2018-May-20 18:56N 55°09' E 014°08'813.1
2018-May-20 18:20N 55°10' E 013°55'513.3
2018-May-20 17:59N 55°10' E 013°46'613.4
2018-May-20 17:30N 55°10' E 013°35'713.5
2018-May-20 17:00N 55°10' E 013°23'713.9
2018-May-20 16:29N 55°12' E 013°11'713.6
2018-May-20 16:00N 55°13' E 013°00'713.7
2018-May-20 15:30N 55°16' E 012°49'713.6
2018-May-20 15:00N 55°18' E 012°38'713.8
2018-May-20 14:30N 55°25' E 012°40'713.4
2018-May-20 14:00N 55°31' E 012°42'4 8.8
2018-May-20 13:30N 55°36' E 012°42'510.8
2018-May-20 13:00N 55°41' E 012°41'713.2
2018-May-20 12:30N 55°48' E 012°42'713.4
2018-May-20 12:00N 55°54' E 012°39'713.4
2018-May-20 11:30N 56°01' E 012°38'510.9
2018-May-20 11:00N 56°06' E 012°34'5 9.9
2018-May-20 10:30N 56°09' E 012°26'612.7
2018-May-20 10:00N 56°12' E 012°17'713.5
2018-May-20 09:30N 56°16' E 012°07'713.8
2018-May-20 09:00N 56°22' E 012°01'714.1
2018-May-20 08:30N 56°29' E 011°57'714.0
2018-May-20 08:00N 56°36' E 011°56'814.0
2018-May-20 07:24N 56°44' E 011°53'713.7
2018-May-20 06:52N 56°51' E 011°49'513.9
2018-May-20 06:30N 56°56' E 011°46'714.0
2018-May-20 06:00N 57°02' E 011°41'714.1
2018-May-20 05:30N 57°09' E 011°37'713.5
2018-May-20 05:00N 57°15' E 011°33'613.2
2018-May-20 04:30N 57°21' E 011°29'613.0
2018-May-20 04:00N 57°28' E 011°25'713.2
2018-May-20 03:30N 57°32' E 011°15'713.1
2018-May-20 03:00N 57°36' E 011°07'713.1
2018-May-20 02:30N 57°41' E 010°57'713.1
2018-May-20 02:00N 57°45' E 010°49'713.4
2018-May-20 01:30N 57°48' E 010°37'714.0
2018-May-20 01:01N 57°47' E 010°24'714.0
2018-May-20 00:30N 57°46' E 010°11'714.5
2018-May-20 00:00N 57°45' E 009°57'714.5
2018-May-19 23:30N 57°42' E 009°44'714.3
2018-May-19 23:00N 57°41' E 009°32'714.4
2018-May-19 22:30N 57°39' E 009°18'714.6
2018-May-19 22:00N 57°36' E 009°06'714.6
2018-May-19 21:30N 57°32' E 008°54'714.4
2018-May-19 21:00N 57°30' E 008°41'714.7
2018-May-19 20:30N 57°28' E 008°29'1014.6
2018-May-19 19:50N 57°24' E 008°12'1014.7
2018-May-19 19:11N 57°20' E 007°56'314.4
2018-May-19 19:00N 57°19' E 007°51'814.5
2018-May-19 18:26N 57°15' E 007°37'614.1
2018-May-19 17:59N 57°13' E 007°27'713.8
2018-May-19 17:28N 57°10' E 007°15'713.4
2018-May-19 16:56N 57°06' E 007°03'512.8
2018-May-19 16:30N 57°04' E 006°54'612.7
2018-May-19 16:00N 57°01' E 006°44'713.0
2018-May-19 15:30N 56°58' E 006°33'713.4
2018-May-19 14:59N 56°53' E 006°24'613.3
2018-May-19 14:31N 56°48' E 006°17'713.7
2018-May-19 14:00N 56°42' E 006°10'713.8
2018-May-19 13:30N 56°36' E 006°05'714.1
2018-May-19 12:59N 56°29' E 006°01'713.9
2018-May-19 12:30N 56°23' E 005°57'713.9
2018-May-19 11:59N 56°16' E 005°52'714.0
2018-May-19 11:29N 56°09' E 005°48'713.8
2018-May-19 11:00N 56°03' E 005°46'18113.1
2018-May-18 21:12N 53°18' E 003°36'313.4
2018-May-18 20:59N 53°15' E 003°35'613.5
2018-May-18 20:30N 53°10' E 003°31'713.8
2018-May-18 19:59N 53°03' E 003°26'3614.7
2018-May-18 17:34N 52°31' E 002°60'115.6
2018-May-18 17:29N 52°30' E 002°59'815.5
2018-May-18 16:56N 52°23' E 002°52'815.7
2018-May-18 16:28N 52°16' E 002°46'1515.4
2018-May-18 15:31N 52°01' E 002°42'015.3
2018-May-18 15:30N 52°01' E 002°42'815.3
2018-May-18 14:58N 51°54' E 002°39'815.2
2018-May-18 14:29N 51°47' E 002°35'714.9
2018-May-18 14:00N 51°41' E 002°28'714.7
2018-May-18 13:30N 51°35' E 002°21'714.3
2018-May-18 13:00N 51°29' E 002°15'714.0
2018-May-18 12:30N 51°22' E 002°11'713.7
2018-May-18 12:00N 51°16' E 002°06'612.6
2018-May-18 11:30N 51°12' E 001°58'612.6
2018-May-18 11:00N 51°09' E 001°49'611.5
2018-May-18 10:30N 51°05' E 001°42'510.8
2018-May-18 10:00N 51°01' E 001°37'510.9
2018-May-18 09:30N 50°57' E 001°31'510.3
2018-May-18 09:00N 50°53' E 001°26'1311.0
2018-May-18 07:51N 50°41' E 001°20'411.9
2018-May-18 07:30N 50°38' E 001°15'612.2
2018-May-18 06:58N 50°34' E 001°07'1012.1
2018-May-18 06:09N 50°28' E 000°55'512.4
2018-May-18 05:43N 50°27' E 000°46'1612.3
2018-May-18 04:23N 50°22' E 000°22'512.1
2018-May-18 04:00N 50°20' E 000°15'612.0
2018-May-18 03:30N 50°19' E 000°06'510.8
2018-May-18 03:00N 50°16' W 000°01'612.2
2018-May-18 02:30N 50°10' W 000°03'612.3
2018-May-18 02:00N 50°04' W 000°04'612.5
2018-May-18 01:30N 49°57' W 000°06'612.6
2018-May-18 01:00N 49°51' W 000°08'612.7
2018-May-18 00:30N 49°45' W 000°09'612.9
2018-May-18 00:00N 49°39' W 000°10'613.0
2018-May-17 23:30N 49°32' W 000°11'612.4
2018-May-17 23:00N 49°29' W 000°03'510.4
2018-May-17 22:30N 49°26' E 000°04'612.9
2018-May-17 22:01N 49°26' E 000°14'510.0
2018-May-17 21:31N 49°26' E 000°22'4 8.7
2018-May-17 21:00N 49°28' E 000°28'3 6.9
2018-May-17 20:30N 49°28' E 000°33'4 8.1
2018-May-17 20:01N 49°27' E 000°39'510.7
2018-May-17 19:30N 49°31' E 000°43'5 9.6
2018-May-17 19:01N 49°28' E 000°49'5 9.6
2018-May-17 18:31N 49°24' E 000°51'510.4
2018-May-17 18:01N 49°29' E 000°52'4 8.6
2018-May-17 17:30N 49°25' E 000°56'4 8.4
2018-May-17 17:00N 49°21' E 000°58'3 6.8
2018-May-17 16:31N 49°24' E 001°01'2 4.0
2018-May-17 16:01N 49°26' E 001°02'2 3.2
2018-May-17 15:30N 49°25' E 001°01'0 0.0
2018-May-17 14:59N 49°25' E 001°01'0 0.0
2018-May-17 14:29N 49°25' E 001°01'0 0.0
2018-May-17 13:56N 49°25' E 001°01'0 0.0
2018-May-17 13:29N 49°25' E 001°01'0 0.0
2018-May-17 12:59N 49°25' E 001°01'0 0.0
2018-May-17 12:29N 49°25' E 001°01'0 0.0
2018-May-17 11:59N 49°25' E 001°01'0 0.0
2018-May-17 11:28N 49°25' E 001°01'0 0.0
2018-May-17 10:58N 49°25' E 001°01'0 0.0
2018-May-17 10:29N 49°25' E 001°01'0 0.0
2018-May-17 09:53N 49°25' E 001°01'0 0.0
2018-May-17 09:29N 49°25' E 001°01'0 0.0
2018-May-17 08:59N 49°25' E 001°01'0 0.0
2018-May-17 08:17N 49°25' E 001°01'0 0.0
2018-May-17 07:59N 49°25' E 001°01'0 0.0
2018-May-17 07:26N 49°25' E 001°01'0 0.0
2018-May-17 06:59N 49°25' E 001°01'0 0.0
2018-May-17 06:23N 49°25' E 001°01'0 0.0
2018-May-17 05:58N 49°25' E 001°01'0 0.0
2018-May-17 05:28N 49°25' E 001°01'0 0.0
2018-May-17 04:58N 49°25' E 001°01'0 0.0
2018-May-17 04:28N 49°25' E 001°01'0 0.0
2018-May-17 03:58N 49°25' E 001°01'0 0.0
2018-May-17 03:28N 49°25' E 001°01'0 0.0
2018-May-17 02:58N 49°25' E 001°01'0 0.0
2018-May-17 02:29N 49°25' E 001°01'0 0.0
2018-May-17 01:59N 49°25' E 001°01'0 0.0
2018-May-17 01:28N 49°25' E 001°01'0 0.0
2018-May-17 00:55N 49°25' E 001°01'0 0.0
2018-May-17 00:28N 49°25' E 001°01'0 0.0
2018-May-16 23:58N 49°25' E 001°01'0 0.0
2018-May-16 23:28N 49°25' E 001°01'0 0.0
2018-May-16 22:58N 49°25' E 001°01'0 0.0
2018-May-16 22:28N 49°25' E 001°01'0 0.0
2018-May-16 21:58N 49°25' E 001°01'0 0.0
2018-May-16 21:28N 49°25' E 001°01'0 0.0
2018-May-16 20:58N 49°25' E 001°01'0 0.0
2018-May-16 20:28N 49°25' E 001°01'0 0.0
2018-May-16 19:59N 49°25' E 001°01'0 0.0
2018-May-16 19:28N 49°25' E 001°01'0 0.0
2018-May-16 18:58N 49°25' E 001°01'0 0.0
2018-May-16 18:28N 49°25' E 001°01'0 0.0
2018-May-16 17:58N 49°25' E 001°01'0 0.0
2018-May-16 17:28N 49°25' E 001°01'0 0.0
2018-May-16 16:58N 49°25' E 001°01'0 0.0
2018-May-16 16:28N 49°25' E 001°01'0 0.0
2018-May-16 15:58N 49°25' E 001°01'0 0.0
2018-May-16 15:28N 49°25' E 001°01'0 0.0
2018-May-16 14:58N 49°25' E 001°01'0 0.0
2018-May-16 14:28N 49°25' E 001°01'0 0.0
2018-May-16 13:58N 49°25' E 001°01'0 0.0
2018-May-16 13:28N 49°25' E 001°01'0 0.0
2018-May-16 12:58N 49°25' E 001°01'0 0.0
2018-May-16 12:28N 49°25' E 001°01'0 0.0
2018-May-16 11:58N 49°25' E 001°01'0 0.0
2018-May-16 11:28N 49°25' E 001°01'0 0.0
2018-May-16 10:58N 49°25' E 001°01'0 0.0
2018-May-16 10:28N 49°25' E 001°01'0 0.0
2018-May-16 09:58N 49°25' E 001°01'0 0.0
2018-May-16 09:25N 49°25' E 001°01'0 0.0
2018-May-16 08:52N 49°25' E 001°01'0 0.0
2018-May-16 08:28N 49°25' E 001°01'0 0.0
2018-May-16 07:58N 49°25' E 001°01'0 0.0
2018-May-16 07:28N 49°25' E 001°01'0 0.0
2018-May-16 06:58N 49°25' E 001°01'0 0.0
2018-May-16 06:28N 49°25' E 001°01'0 0.0
2018-May-16 05:58N 49°25' E 001°01'0 0.0
2018-May-16 05:28N 49°25' E 001°01'0 0.0
2018-May-16 04:58N 49°25' E 001°01'0 0.0
2018-May-16 04:28N 49°25' E 001°01'0 0.0
2018-May-16 03:58N 49°25' E 001°01'0 0.0
2018-May-16 03:28N 49°25' E 001°01'0 0.0
2018-May-16 02:58N 49°25' E 001°01'0 0.0
2018-May-16 02:28N 49°25' E 001°01'0 0.0
2018-May-16 01:55N 49°25' E 001°01'0 0.0
2018-May-16 01:28N 49°25' E 001°01'0 0.0
2018-May-16 00:58N 49°25' E 001°01'0 0.0
2018-May-16 00:28N 49°25' E 001°01'0 0.0
2018-May-15 23:52N 49°25' E 001°01'0 0.0
2018-May-15 23:28N 49°25' E 001°01'0 0.0
2018-May-15 22:52N 49°25' E 001°01'0 0.0
2018-May-15 22:28N 49°25' E 001°01'0 0.0
2018-May-15 21:58N 49°25' E 001°01'0 0.0
2018-May-15 21:25N 49°25' E 001°01'0 0.0
2018-May-15 20:58N 49°25' E 001°01'0 0.0
2018-May-15 20:28N 49°25' E 001°01'0 0.0
2018-May-15 19:58N 49°25' E 001°01'0 0.0
2018-May-15 19:28N 49°25' E 001°01'0 0.0
2018-May-15 18:58N 49°25' E 001°01'0 0.0
2018-May-15 18:28N 49°25' E 001°01'0 0.0
2018-May-15 17:58N 49°25' E 001°01'0 0.0
2018-May-15 17:28N 49°25' E 001°01'0 0.0
2018-May-15 16:58N 49°25' E 001°01'0 0.0
2018-May-15 16:28N 49°25' E 001°01'0 0.0
2018-May-15 15:58N 49°25' E 001°01'0 0.0
2018-May-15 15:28N 49°25' E 001°01'0 0.0
2018-May-15 14:58N 49°25' E 001°01'0 0.0
2018-May-15 14:28N 49°25' E 001°01'0 0.0
2018-May-15 13:58N 49°25' E 001°01'0 0.7
2018-May-15 13:30N 49°24' E 001°01'3 5.1
2018-May-15 13:00N 49°22' E 000°60'3 5.8
2018-May-15 12:30N 49°22' E 000°55'510.2
2018-May-15 12:00N 49°27' E 000°56'3 6.3
2018-May-15 11:30N 49°28' E 000°52'4 8.7
2018-May-15 11:00N 49°24' E 000°52'4 7.6
2018-May-15 10:30N 49°27' E 000°49'4 8.4
2018-May-15 10:00N 49°31' E 000°46'4 8.5
2018-May-15 09:30N 49°29' E 000°40'5 9.2
2018-May-15 09:00N 49°27' E 000°34'4 8.4
2018-May-15 08:30N 49°28' E 000°28'714.2
2018-May-15 08:00N 49°26' E 000°17'611.9
2018-May-15 07:30N 49°26' E 000°08'611.1
2018-May-15 07:00N 49°28' W 000°00'2 3.3
2018-May-15 06:30N 49°28' W 000°03'2 3.0
2018-May-15 06:00N 49°29' W 000°04'3 5.3
2018-May-15 05:30N 49°29' W 000°08'0 0.2
2018-May-15 05:00N 49°29' W 000°08'0 0.1
2018-May-15 04:30N 49°29' W 000°08'0 0.0
2018-May-15 04:00N 49°29' W 000°08'0 0.0
2018-May-15 03:27N 49°29' W 000°08'0 0.0
2018-May-15 03:00N 49°29' W 000°08'0 0.0
2018-May-15 02:30N 49°29' W 000°08'0 0.0
2018-May-15 02:00N 49°29' W 000°08'0 0.0
2018-May-15 01:30N 49°29' W 000°08'0 0.0
2018-May-15 01:00N 49°29' W 000°08'0 0.0
2018-May-15 00:30N 49°29' W 000°08'0 0.3
2018-May-15 00:00N 49°29' W 000°09'4 7.1
2018-May-14 23:31N 49°32' W 000°12'3 5.1
2018-May-14 23:01N 49°34' W 000°11'611.3
2018-May-14 22:31N 49°40' W 000°10'612.6
2018-May-14 22:01N 49°46' W 000°08'612.6
2018-May-14 21:31N 49°52' W 000°07'612.3
2018-May-14 21:00N 49°58' W 000°05'611.6
2018-May-14 20:30N 50°04' W 000°04'611.8
2018-May-14 20:00N 50°10' W 000°02'612.4
2018-May-14 19:30N 50°16' W 000°02'612.7
2018-May-14 19:01N 50°22' W 000°05'611.7
2018-May-14 18:30N 50°27' W 000°01'612.3
2018-May-14 18:01N 50°29' E 000°08'613.0
2018-May-14 17:31N 50°31' E 000°18'713.9
2018-May-14 17:00N 50°34' E 000°28'714.4
2018-May-14 16:30N 50°37' E 000°38'714.7
2018-May-14 16:00N 50°40' E 000°49'714.8
2018-May-14 15:30N 50°45' E 000°58'714.4
2018-May-14 15:00N 50°49' E 001°07'1513.4
2018-May-14 13:53N 50°59' E 001°24'512.1
2018-May-14 13:31N 51°03' E 001°29'611.1
2018-May-14 13:01N 51°06' E 001°36'510.6
2018-May-14 12:31N 51°10' E 001°42'510.5
2018-May-14 12:00N 51°14' E 001°47'510.9
2018-May-14 11:31N 51°19' E 001°52'611.5
2018-May-14 11:00N 51°24' E 001°55'612.0
2018-May-14 10:30N 51°28' E 002°02'612.1
2018-May-14 10:00N 51°33' E 002°09'712.4
2018-May-14 09:29N 51°37' E 002°16'612.9
2018-May-14 08:58N 51°42' E 002°23'6914.0
2018-May-14 04:05N 52°45' E 003°08'32612.7
2018-May-13 02:26N 57°20' E 008°14'613.0
2018-May-13 02:00N 57°23' E 008°23'713.1
2018-May-13 01:27N 57°27' E 008°34'613.1
2018-May-13 01:00N 57°30' E 008°43'713.2
2018-May-13 00:30N 57°34' E 008°53'713.1
2018-May-12 23:59N 57°38' E 009°03'3812.9
2018-May-12 21:03N 57°49' E 010°11'313.1
2018-May-12 20:50N 57°49' E 010°16'413.2
2018-May-12 20:31N 57°49' E 010°24'612.8
2018-May-12 20:01N 57°49' E 010°36'711.8
2018-May-12 19:26N 57°47' E 010°48'511.4
2018-May-12 19:00N 57°44' E 010°55'612.2
2018-May-12 18:31N 57°39' E 011°03'612.9
2018-May-12 18:01N 57°35' E 011°12'612.7
2018-May-12 17:31N 57°31' E 011°20'611.8
2018-May-12 17:01N 57°26' E 011°27'612.2
2018-May-12 16:31N 57°20' E 011°31'612.4
2018-May-12 16:00N 57°14' E 011°35'612.3
2018-May-12 15:31N 57°09' E 011°39'612.3
2018-May-12 15:01N 57°03' E 011°42'  
Track history (hours):
 
Tides and Currents Weather Stations Pressure Air Temp Water Temp Dewpoint Dewpoint Depression Visibility Wind Speed Wind Dir Waves Ship Positions

Sti Hammersmith

Last reported at 2018-May-22 14:50 UTC. Time now 2018-May-22 19:10 UTC.
Position N 60°02' E 029°24'.

Length 184 m; draft 6.9 m.

Type: Tanker. MMSI: 538005410.

Date/timePositionNaut miles runAvg speedWind from/ knotsBaromVisibWave heightAir tempDewpointWater temp
2018-May-22 14:50N 60°02' E 029°24'6 7.8
2018-May-22 14:04N 60°02' E 029°12'112.6
2018-May-22 14:00N 60°02' E 029°11'713.4
2018-May-22 13:30N 60°02' E 028°58'713.6
2018-May-22 13:01N 60°02' E 028°44'713.7
2018-May-22 12:30N 60°03' E 028°30'713.6
2018-May-22 12:00N 60°06' E 028°18'713.9
2018-May-22 11:30N 60°08' E 028°05'713.8
2018-May-22 11:00N 60°10' E 027°52'612.6
2018-May-22 10:30N 60°09' E 027°40'714.0
2018-May-22 10:00N 60°05' E 027°28'713.9
2018-May-22 09:30N 60°02' E 027°16'714.0
2018-May-22 09:00N 59°58' E 027°04'713.6
2018-May-22 08:30N 59°59' E 026°50'713.4
2018-May-22 08:00N 59°59' E 026°37'713.9
2018-May-22 07:31N 59°57' E 026°24'2013.8
2018-May-22 06:05N 59°52' E 025°46'113.8
2018-May-22 06:01N 59°52' E 025°44'713.6
2018-May-22 05:30N 59°50' E 025°31'713.4
2018-May-22 05:01N 59°49' E 025°18'713.6
2018-May-22 04:30N 59°48' E 025°04'713.8
2018-May-22 04:00N 59°46' E 024°51'714.0
2018-May-22 03:30N 59°45' E 024°37'713.8
2018-May-22 03:00N 59°43' E 024°24'713.5
2018-May-22 02:30N 59°41' E 024°11'713.6
2018-May-22 02:00N 59°39' E 023°59'713.7
2018-May-22 01:30N 59°36' E 023°46'714.2
2018-May-22 01:00N 59°34' E 023°33'714.1
2018-May-22 00:30N 59°32' E 023°20'914.0
2018-May-21 23:54N 59°29' E 023°04'514.1
2018-May-21 23:30N 59°27' E 022°53'714.0
2018-May-21 23:01N 59°25' E 022°40'813.9
2018-May-21 22:25N 59°21' E 022°26'614.0
2018-May-21 21:59N 59°17' E 022°17'913.9
2018-May-21 21:21N 59°12' E 022°03'513.8
2018-May-21 20:58N 59°09' E 021°55'713.7
2018-May-21 20:28N 59°05' E 021°44'23213.6
2018-May-21 03:19N 56°09' E 017°00'414.0
2018-May-21 03:01N 56°06' E 016°54'713.9
2018-May-21 02:30N 56°02' E 016°44'713.9
2018-May-21 02:00N 55°59' E 016°33'713.8
2018-May-21 01:30N 55°55' E 016°23'713.7
2018-May-21 01:00N 55°52' E 016°12'713.7
2018-May-21 00:30N 55°48' E 016°02'714.0
2018-May-21 00:00N 55°44' E 015°51'713.9
2018-May-20 23:30N 55°41' E 015°41'714.1
2018-May-20 23:01N 55°37' E 015°30'714.2
2018-May-20 22:30N 55°34' E 015°18'714.0
2018-May-20 22:00N 55°31' E 015°07'713.9
2018-May-20 21:30N 55°29' E 014°56'713.8
2018-May-20 21:01N 55°26' E 014°45'713.5
2018-May-20 20:30N 55°21' E 014°36'713.7
2018-May-20 20:01N 55°16' E 014°28'713.6
2018-May-20 19:30N 55°11' E 014°20'712.8
2018-May-20 18:56N 55°09' E 014°08'813.1
2018-May-20 18:20N 55°10' E 013°55'513.3
2018-May-20 17:59N 55°10' E 013°46'613.4
2018-May-20 17:30N 55°10' E 013°35'713.5
2018-May-20 17:00N 55°10' E 013°23'713.9
2018-May-20 16:29N 55°12' E 013°11'713.6
2018-May-20 16:00N 55°13' E 013°00'713.7
2018-May-20 15:30N 55°16' E 012°49'713.6
2018-May-20 15:00N 55°18' E 012°38'713.8
2018-May-20 14:30N 55°25' E 012°40'713.4
2018-May-20 14:00N 55°31' E 012°42'4 8.8
2018-May-20 13:30N 55°36' E 012°42'510.8
2018-May-20 13:00N 55°41' E 012°41'713.2
2018-May-20 12:30N 55°48' E 012°42'713.4
2018-May-20 12:00N 55°54' E 012°39'713.4
2018-May-20 11:30N 56°01' E 012°38'510.9
2018-May-20 11:00N 56°06' E 012°34'5 9.9
2018-May-20 10:30N 56°09' E 012°26'612.7
2018-May-20 10:00N 56°12' E 012°17'713.5
2018-May-20 09:30N 56°16' E 012°07'713.8
2018-May-20 09:00N 56°22' E 012°01'714.1
2018-May-20 08:30N 56°29' E 011°57'714.0
2018-May-20 08:00N 56°36' E 011°56'814.0
2018-May-20 07:24N 56°44' E 011°53'713.7
2018-May-20 06:52N 56°51' E 011°49'513.9
2018-May-20 06:30N 56°56' E 011°46'714.0
2018-May-20 06:00N 57°02' E 011°41'714.1
2018-May-20 05:30N 57°09' E 011°37'713.5
2018-May-20 05:00N 57°15' E 011°33'613.2
2018-May-20 04:30N 57°21' E 011°29'613.0
2018-May-20 04:00N 57°28' E 011°25'713.2
2018-May-20 03:30N 57°32' E 011°15'713.1
2018-May-20 03:00N 57°36' E 011°07'713.1
2018-May-20 02:30N 57°41' E 010°57'713.1
2018-May-20 02:00N 57°45' E 010°49'713.4
2018-May-20 01:30N 57°48' E 010°37'714.0
2018-May-20 01:01N 57°47' E 010°24'714.0
2018-May-20 00:30N 57°46' E 010°11'714.5
2018-May-20 00:00N 57°45' E 009°57'714.5
2018-May-19 23:30N 57°42' E 009°44'714.3
2018-May-19 23:00N 57°41' E 009°32'714.4
2018-May-19 22:30N 57°39' E 009°18'714.6
2018-May-19 22:00N 57°36' E 009°06'714.6
2018-May-19 21:30N 57°32' E 008°54'714.4
2018-May-19 21:00N 57°30' E 008°41'714.7
2018-May-19 20:30N 57°28' E 008°29'1014.6
2018-May-19 19:50N 57°24' E 008°12'1014.7
2018-May-19 19:11N 57°20' E 007°56'314.4
2018-May-19 19:00N 57°19' E 007°51'814.5
2018-May-19 18:26N 57°15' E 007°37'614.1
2018-May-19 17:59N 57°13' E 007°27'713.8
2018-May-19 17:28N 57°10' E 007°15'713.4
2018-May-19 16:56N 57°06' E 007°03'512.8
2018-May-19 16:30N 57°04' E 006°54'612.7
2018-May-19 16:00N 57°01' E 006°44'713.0
2018-May-19 15:30N 56°58' E 006°33'713.4
2018-May-19 14:59N 56°53' E 006°24'613.3
2018-May-19 14:31N 56°48' E 006°17'713.7
2018-May-19 14:00N 56°42' E 006°10'713.8
2018-May-19 13:30N 56°36' E 006°05'714.1
2018-May-19 12:59N 56°29' E 006°01'713.9
2018-May-19 12:30N 56°23' E 005°57'713.9
2018-May-19 11:59N 56°16' E 005°52'714.0
2018-May-19 11:29N 56°09' E 005°48'713.8
2018-May-19 11:00N 56°03' E 005°46'18113.1
2018-May-18 21:12N 53°18' E 003°36'313.4
2018-May-18 20:59N 53°15' E 003°35'613.5
2018-May-18 20:30N 53°10' E 003°31'713.8
2018-May-18 19:59N 53°03' E 003°26'3614.7
2018-May-18 17:34N 52°31' E 002°60'115.6
2018-May-18 17:29N 52°30' E 002°59'815.5
2018-May-18 16:56N 52°23' E 002°52'815.7
2018-May-18 16:28N 52°16' E 002°46'1515.4
2018-May-18 15:31N 52°01' E 002°42'015.3
2018-May-18 15:30N 52°01' E 002°42'815.3
2018-May-18 14:58N 51°54' E 002°39'815.2
2018-May-18 14:29N 51°47' E 002°35'714.9
2018-May-18 14:00N 51°41' E 002°28'714.7
2018-May-18 13:30N 51°35' E 002°21'714.3
2018-May-18 13:00N 51°29' E 002°15'714.0
2018-May-18 12:30N 51°22' E 002°11'713.7
2018-May-18 12:00N 51°16' E 002°06'612.6
2018-May-18 11:30N 51°12' E 001°58'612.6
2018-May-18 11:00N 51°09' E 001°49'611.5
2018-May-18 10:30N 51°05' E 001°42'510.8
2018-May-18 10:00N 51°01' E 001°37'510.9
2018-May-18 09:30N 50°57' E 001°31'510.3
2018-May-18 09:00N 50°53' E 001°26'1311.0
2018-May-18 07:51N 50°41' E 001°20'411.9
2018-May-18 07:30N 50°38' E 001°15'612.2
2018-May-18 06:58N 50°34' E 001°07'1012.1
2018-May-18 06:09N 50°28' E 000°55'512.4
2018-May-18 05:43N 50°27' E 000°46'1612.3
2018-May-18 04:23N 50°22' E 000°22'512.1
2018-May-18 04:00N 50°20' E 000°15'612.0
2018-May-18 03:30N 50°19' E 000°06'510.8
2018-May-18 03:00N 50°16' W 000°01'612.2
2018-May-18 02:30N 50°10' W 000°03'612.3
2018-May-18 02:00N 50°04' W 000°04'612.5
2018-May-18 01:30N 49°57' W 000°06'612.6
2018-May-18 01:00N 49°51' W 000°08'612.7
2018-May-18 00:30N 49°45' W 000°09'612.9
2018-May-18 00:00N 49°39' W 000°10'613.0
2018-May-17 23:30N 49°32' W 000°11'612.4
2018-May-17 23:00N 49°29' W 000°03'510.4
2018-May-17 22:30N 49°26' E 000°04'612.9
2018-May-17 22:01N 49°26' E 000°14'510.0
2018-May-17 21:31N 49°26' E 000°22'4 8.7
2018-May-17 21:00N 49°28' E 000°28'3 6.9
2018-May-17 20:30N 49°28' E 000°33'4 8.1
2018-May-17 20:01N 49°27' E 000°39'510.7
2018-May-17 19:30N 49°31' E 000°43'5 9.6
2018-May-17 19:01N 49°28' E 000°49'5 9.6
2018-May-17 18:31N 49°24' E 000°51'510.4
2018-May-17 18:01N 49°29' E 000°52'4 8.6
2018-May-17 17:30N 49°25' E 000°56'4 8.4
2018-May-17 17:00N 49°21' E 000°58'3 6.8
2018-May-17 16:31N 49°24' E 001°01'2 4.0
2018-May-17 16:01N 49°26' E 001°02'2 3.2
2018-May-17 15:30N 49°25' E 001°01'0 0.0
2018-May-17 14:59N 49°25' E 001°01'0 0.0
2018-May-17 14:29N 49°25' E 001°01'0 0.0
2018-May-17 13:56N 49°25' E 001°01'0 0.0
2018-May-17 13:29N 49°25' E 001°01'0 0.0
2018-May-17 12:59N 49°25' E 001°01'0 0.0
2018-May-17 12:29N 49°25' E 001°01'0 0.0
2018-May-17 11:59N 49°25' E 001°01'0 0.0
2018-May-17 11:28N 49°25' E 001°01'0 0.0
2018-May-17 10:58N 49°25' E 001°01'0 0.0
2018-May-17 10:29N 49°25' E 001°01'0 0.0
2018-May-17 09:53N 49°25' E 001°01'0 0.0
2018-May-17 09:29N 49°25' E 001°01'0 0.0
2018-May-17 08:59N 49°25' E 001°01'0 0.0
2018-May-17 08:17N 49°25' E 001°01'0 0.0
2018-May-17 07:59N 49°25' E 001°01'0 0.0
2018-May-17 07:26N 49°25' E 001°01'0 0.0
2018-May-17 06:59N 49°25' E 001°01'0 0.0
2018-May-17 06:23N 49°25' E 001°01'0 0.0
2018-May-17 05:58N 49°25' E 001°01'0 0.0
2018-May-17 05:28N 49°25' E 001°01'0 0.0
2018-May-17 04:58N 49°25' E 001°01'0 0.0
2018-May-17 04:28N 49°25' E 001°01'0 0.0
2018-May-17 03:58N 49°25' E 001°01'0 0.0
2018-May-17 03:28N 49°25' E 001°01'0 0.0
2018-May-17 02:58N 49°25' E 001°01'0 0.0
2018-May-17 02:29N 49°25' E 001°01'0 0.0
2018-May-17 01:59N 49°25' E 001°01'0 0.0
2018-May-17 01:28N 49°25' E 001°01'0 0.0
2018-May-17 00:55N 49°25' E 001°01'0 0.0
2018-May-17 00:28N 49°25' E 001°01'0 0.0
2018-May-16 23:58N 49°25' E 001°01'0 0.0
2018-May-16 23:28N 49°25' E 001°01'0 0.0
2018-May-16 22:58N 49°25' E 001°01'0 0.0
2018-May-16 22:28N 49°25' E 001°01'0 0.0
2018-May-16 21:58N 49°25' E 001°01'0 0.0
2018-May-16 21:28N 49°25' E 001°01'0 0.0
2018-May-16 20:58N 49°25' E 001°01'0 0.0
2018-May-16 20:28N 49°25' E 001°01'0 0.0
2018-May-16 19:59N 49°25' E 001°01'0 0.0
2018-May-16 19:28N 49°25' E 001°01'0 0.0
2018-May-16 18:58N 49°25' E 001°01'0 0.0
2018-May-16 18:28N 49°25' E 001°01'0 0.0
2018-May-16 17:58N 49°25' E 001°01'0 0.0
2018-May-16 17:28N 49°25' E 001°01'0 0.0
2018-May-16 16:58N 49°25' E 001°01'0 0.0
2018-May-16 16:28N 49°25' E 001°01'0 0.0
2018-May-16 15:58N 49°25' E 001°01'0 0.0
2018-May-16 15:28N 49°25' E 001°01'0 0.0
2018-May-16 14:58N 49°25' E 001°01'0 0.0
2018-May-16 14:28N 49°25' E 001°01'0 0.0
2018-May-16 13:58N 49°25' E 001°01'0 0.0
2018-May-16 13:28N 49°25' E 001°01'0 0.0
2018-May-16 12:58N 49°25' E 001°01'0 0.0
2018-May-16 12:28N 49°25' E 001°01'0 0.0
2018-May-16 11:58N 49°25' E 001°01'0 0.0
2018-May-16 11:28N 49°25' E 001°01'0 0.0
2018-May-16 10:58N 49°25' E 001°01'0 0.0
2018-May-16 10:28N 49°25' E 001°01'0 0.0
2018-May-16 09:58N 49°25' E 001°01'0 0.0
2018-May-16 09:25N 49°25' E 001°01'0 0.0
2018-May-16 08:52N 49°25' E 001°01'0 0.0
2018-May-16 08:28N 49°25' E 001°01'0 0.0
2018-May-16 07:58N 49°25' E 001°01'0 0.0
2018-May-16 07:28N 49°25' E 001°01'0 0.0
2018-May-16 06:58N 49°25' E 001°01'0 0.0
2018-May-16 06:28N 49°25' E 001°01'0 0.0
2018-May-16 05:58N 49°25' E 001°01'0 0.0
2018-May-16 05:28N 49°25' E 001°01'0 0.0
2018-May-16 04:58N 49°25' E 001°01'0 0.0
2018-May-16 04:28N 49°25' E 001°01'0 0.0
2018-May-16 03:58N 49°25' E 001°01'0 0.0
2018-May-16 03:28N 49°25' E 001°01'0 0.0
2018-May-16 02:58N 49°25' E 001°01'0 0.0
2018-May-16 02:28N 49°25' E 001°01'0 0.0
2018-May-16 01:55N 49°25' E 001°01'0 0.0
2018-May-16 01:28N 49°25' E 001°01'0 0.0
2018-May-16 00:58N 49°25' E 001°01'0 0.0
2018-May-16 00:28N 49°25' E 001°01'0 0.0
2018-May-15 23:52N 49°25' E 001°01'0 0.0
2018-May-15 23:28N 49°25' E 001°01'0 0.0
2018-May-15 22:52N 49°25' E 001°01'0 0.0
2018-May-15 22:28N 49°25' E 001°01'0 0.0
2018-May-15 21:58N 49°25' E 001°01'0 0.0
2018-May-15 21:25N 49°25' E 001°01'0 0.0
2018-May-15 20:58N 49°25' E 001°01'0 0.0
2018-May-15 20:28N 49°25' E 001°01'0 0.0
2018-May-15 19:58N 49°25' E 001°01'0 0.0
2018-May-15 19:28N 49°25' E 001°01'0 0.0
2018-May-15 18:58N 49°25' E 001°01'0 0.0
2018-May-15 18:28N 49°25' E 001°01'0 0.0
2018-May-15 17:58N 49°25' E 001°01'0 0.0
2018-May-15 17:28N 49°25' E 001°01'0 0.0
2018-May-15 16:58N 49°25' E 001°01'0 0.0
2018-May-15 16:28N 49°25' E 001°01'0 0.0
2018-May-15 15:58N 49°25' E 001°01'0 0.0
2018-May-15 15:28N 49°25' E 001°01'0 0.0
2018-May-15 14:58N 49°25' E 001°01'0 0.0
2018-May-15 14:28N 49°25' E 001°01'0 0.0
2018-May-15 13:58N 49°25' E 001°01'0 0.7
2018-May-15 13:30N 49°24' E 001°01'3 5.1
2018-May-15 13:00N 49°22' E 000°60'3 5.8
2018-May-15 12:30N 49°22' E 000°55'510.2
2018-May-15 12:00N 49°27' E 000°56'3 6.3
2018-May-15 11:30N 49°28' E 000°52'4 8.7
2018-May-15 11:00N 49°24' E 000°52'4 7.6
2018-May-15 10:30N 49°27' E 000°49'4 8.4
2018-May-15 10:00N 49°31' E 000°46'4 8.5
2018-May-15 09:30N 49°29' E 000°40'5 9.2
2018-May-15 09:00N 49°27' E 000°34'4 8.4
2018-May-15 08:30N 49°28' E 000°28'714.2
2018-May-15 08:00N 49°26' E 000°17'611.9
2018-May-15 07:30N 49°26' E 000°08'611.1
2018-May-15 07:00N 49°28' W 000°00'2 3.3
2018-May-15 06:30N 49°28' W 000°03'2 3.0
2018-May-15 06:00N 49°29' W 000°04'3 5.3
2018-May-15 05:30N 49°29' W 000°08'0 0.2
2018-May-15 05:00N 49°29' W 000°08'0 0.1
2018-May-15 04:30N 49°29' W 000°08'0 0.0
2018-May-15 04:00N 49°29' W 000°08'0 0.0
2018-May-15 03:27N 49°29' W 000°08'0 0.0
2018-May-15 03:00N 49°29' W 000°08'0 0.0
2018-May-15 02:30N 49°29' W 000°08'0 0.0
2018-May-15 02:00N 49°29' W 000°08'0 0.0
2018-May-15 01:30N 49°29' W 000°08'0 0.0
2018-May-15 01:00N 49°29' W 000°08'0 0.0
2018-May-15 00:30N 49°29' W 000°08'0 0.3
2018-May-15 00:00N 49°29' W 000°09'4 7.1
2018-May-14 23:31N 49°32' W 000°12'3 5.1
2018-May-14 23:01N 49°34' W 000°11'611.3
2018-May-14 22:31N 49°40' W 000°10'612.6
2018-May-14 22:01N 49°46' W 000°08'612.6
2018-May-14 21:31N 49°52' W 000°07'612.3
2018-May-14 21:00N 49°58' W 000°05'611.6
2018-May-14 20:30N 50°04' W 000°04'611.8
2018-May-14 20:00N 50°10' W 000°02'612.4
2018-May-14 19:30N 50°16' W 000°02'612.7
2018-May-14 19:01N 50°22' W 000°05'611.7
2018-May-14 18:30N 50°27' W 000°01'612.3
2018-May-14 18:01N 50°29' E 000°08'613.0
2018-May-14 17:31N 50°31' E 000°18'713.9
2018-May-14 17:00N 50°34' E 000°28'714.4
2018-May-14 16:30N 50°37' E 000°38'714.7
2018-May-14 16:00N 50°40' E 000°49'714.8
2018-May-14 15:30N 50°45' E 000°58'714.4
2018-May-14 15:00N 50°49' E 001°07'1513.4
2018-May-14 13:53N 50°59' E 001°24'512.1
2018-May-14 13:31N 51°03' E 001°29'611.1
2018-May-14 13:01N 51°06' E 001°36'510.6
2018-May-14 12:31N 51°10' E 001°42'510.5
2018-May-14 12:00N 51°14' E 001°47'510.9
2018-May-14 11:31N 51°19' E 001°52'611.5
2018-May-14 11:00N 51°24' E 001°55'612.0
2018-May-14 10:30N 51°28' E 002°02'612.1
2018-May-14 10:00N 51°33' E 002°09'712.4
2018-May-14 09:29N 51°37' E 002°16'612.9
2018-May-14 08:58N 51°42' E 002°23'6914.0
2018-May-14 04:05N 52°45' E 003°08'32612.7
2018-May-13 02:26N 57°20' E 008°14'613.0
2018-May-13 02:00N 57°23' E 008°23'713.1
2018-May-13 01:27N 57°27' E 008°34'613.1
2018-May-13 01:00N 57°30' E 008°43'713.2
2018-May-13 00:30N 57°34' E 008°53'713.1
2018-May-12 23:59N 57°38' E 009°03'3812.9
2018-May-12 21:03N 57°49' E 010°11'313.1
2018-May-12 20:50N 57°49' E 010°16'413.2
2018-May-12 20:31N 57°49' E 010°24'612.8
2018-May-12 20:01N 57°49' E 010°36'711.8
2018-May-12 19:26N 57°47' E 010°48'511.4
2018-May-12 19:00N 57°44' E 010°55'612.2
2018-May-12 18:31N 57°39' E 011°03'612.9
2018-May-12 18:01N 57°35' E 011°12'612.7
2018-May-12 17:31N 57°31' E 011°20'611.8
2018-May-12 17:01N 57°26' E 011°27'612.2
2018-May-12 16:31N 57°20' E 011°31'612.4
2018-May-12 16:00N 57°14' E 011°35'612.3
2018-May-12 15:31N 57°09' E 011°39'612.3
2018-May-12 15:01N 57°03' E 011°42'  

Dump ship's entire track history